createdAt,value
2018-09-19T19:46:35.337Z,11.12
2018-09-19T19:49:15.161Z,8.17
2018-09-19T19:51:56.849Z,6.90
2018-09-19T19:54:36.191Z,7.53
2018-09-19T19:57:14.905Z,8.10
2018-09-19T19:59:57.824Z,9.20
2018-09-19T20:02:37.214Z,5.27
2018-09-19T20:05:21.714Z,6.03
2018-09-19T20:08:01.453Z,8.13
2018-09-19T20:10:40.876Z,5.63
2018-09-19T20:13:18.708Z,5.93
2018-09-19T20:15:57.806Z,8.20
2018-09-19T20:18:37.627Z,7.90
2018-09-19T20:21:23.765Z,8.17
2018-09-19T20:24:03.549Z,7.63
2018-09-19T20:26:43.534Z,13.77
2018-09-19T20:29:22.174Z,6.57
2018-09-19T20:32:02.212Z,10.57
2018-09-19T20:34:43.658Z,6.23
2018-09-19T20:37:22.753Z,15.77
2018-09-19T20:40:01.477Z,5.80
2018-09-19T20:42:40.421Z,6.70
2018-09-19T20:45:19.104Z,8.63
2018-09-19T20:48:00.679Z,10.20
2018-09-19T20:50:40.858Z,5.53
2018-09-19T20:53:22.006Z,6.27
2018-09-19T20:56:02.311Z,10.70
2018-09-19T20:58:42.441Z,7.00
2018-09-19T21:01:25.609Z,6.93
2018-09-19T21:04:07.313Z,7.57
2018-09-19T21:06:44.444Z,5.13
2018-09-19T21:09:32.045Z,5.90
2018-09-19T21:12:09.335Z,9.60
2018-09-19T21:14:49.048Z,9.03
2018-09-19T21:17:26.602Z,6.17
2018-09-19T21:20:08.165Z,9.23
2018-09-19T21:22:47.088Z,6.00
2018-09-19T21:25:28.889Z,5.60
2018-09-19T21:28:08.843Z,8.33
2018-09-19T21:30:48.793Z,5.90
2018-09-19T21:33:28.792Z,4.93
2018-09-19T21:36:08.798Z,5.60
2018-09-19T21:38:47.208Z,11.00
2018-09-19T21:41:26.882Z,8.60
2018-09-19T21:44:07.335Z,4.00
2018-09-19T21:46:49.462Z,5.63
2018-09-19T21:49:27.507Z,5.33
2018-09-19T21:52:07.671Z,10.73
2018-09-19T21:54:46.872Z,5.77
2018-09-19T21:57:27.070Z,7.03
2018-09-19T22:00:06.598Z,7.30
2018-09-19T22:02:47.127Z,5.00
2018-09-19T22:05:25.916Z,5.50
2018-09-19T22:08:06.556Z,7.03
2018-09-19T22:10:46.133Z,7.10
2018-09-19T22:13:24.811Z,8.47
2018-09-19T22:16:04.438Z,9.50
2018-09-19T22:18:42.753Z,4.93
2018-09-19T22:21:20.652Z,8.30
2018-09-19T22:23:58.482Z,6.77
2018-09-19T22:26:37.194Z,6.27
2018-09-19T22:29:14.259Z,5.20
2018-09-19T22:31:52.361Z,5.30
2018-09-19T22:34:32.446Z,8.50
2018-09-19T22:37:12.462Z,4.83
2018-09-19T22:39:51.740Z,5.60
2018-09-19T22:42:31.641Z,5.37
2018-09-19T22:45:11.925Z,4.80
2018-09-19T22:47:51.504Z,5.63
2018-09-19T22:50:30.260Z,5.03
2018-09-19T22:53:08.062Z,4.63
2018-09-19T22:55:50.552Z,8.13
2018-09-19T22:58:28.156Z,11.63
2018-09-19T23:01:05.788Z,7.60
2018-09-19T23:03:42.806Z,4.40
2018-09-19T23:06:19.785Z,44.07
2018-09-19T23:08:56.989Z,205.63
2018-09-19T23:11:35.928Z,258.40
2018-09-19T23:14:14.474Z,143.30
2018-09-19T23:16:51.968Z,34.57
2018-09-19T23:19:28.924Z,4.53
2018-09-19T23:22:06.800Z,3.37
2018-09-19T23:24:45.001Z,5.10
2018-09-19T23:27:23.395Z,3.83
2018-09-19T23:30:02.132Z,236.03
2018-09-19T23:32:40.336Z,13.57
2018-09-19T23:35:18.958Z,4.73
2018-09-19T23:37:57.958Z,4.03
2018-09-19T23:40:37.766Z,5.23
2018-09-19T23:43:19.304Z,20.83
2018-09-19T23:45:59.216Z,3.53
2018-09-19T23:48:40.566Z,5.73
2018-09-19T23:51:21.935Z,28.47
2018-09-19T23:54:01.665Z,304.77
2018-09-19T23:56:40.766Z,276.10
2018-09-19T23:59:18.999Z,317.03
